sensor_id;sensor_type;location;lat;lon;timestamp;temperature;humidity
10873;DHT22;34586;53.616;10.032;2022-12-18T00:01:35;-3.30;1.00
10873;DHT22;34586;53.616;10.032;2022-12-18T00:04:03;-3.30;1.00
10873;DHT22;34586;53.616;10.032;2022-12-18T00:06:34;-3.30;1.00
10873;DHT22;34586;53.616;10.032;2022-12-18T00:09:01;-3.30;1.00
10873;DHT22;34586;53.616;10.032;2022-12-18T00:11:28;-3.30;1.00
10873;DHT22;34586;53.616;10.032;2022-12-18T00:13:56;-3.40;1.00
10873;DHT22;34586;53.616;10.032;2022-12-18T00:16:24;-3.40;1.00
10873;DHT22;34586;53.616;10.032;2022-12-18T00:18:53;-3.40;1.00
10873;DHT22;34586;53.616;10.032;2022-12-18T00:21:20;-3.40;1.00
10873;DHT22;34586;53.616;10.032;2022-12-18T00:23:47;-3.40;1.00
10873;DHT22;34586;53.616;10.032;2022-12-18T00:26:25;-3.50;1.00
10873;DHT22;34586;53.616;10.032;2022-12-18T00:28:52;-3.50;1.00
10873;DHT22;34586;53.616;10.032;2022-12-18T00:31:20;-3.50;1.00
10873;DHT22;34586;53.616;10.032;2022-12-18T00:33:46;-3.50;1.00
10873;DHT22;34586;53.616;10.032;2022-12-18T00:36:14;-3.60;1.00
10873;DHT22;34586;53.616;10.032;2022-12-18T00:38:40;-3.50;1.00
10873;DHT22;34586;53.616;10.032;2022-12-18T00:41:09;-3.50;1.00
10873;DHT22;34586;53.616;10.032;2022-12-18T00:43:36;-3.50;1.00
10873;DHT22;34586;53.616;10.032;2022-12-18T00:46:02;-3.50;1.00
10873;DHT22;34586;53.616;10.032;2022-12-18T00:48:28;-3.50;1.00
10873;DHT22;34586;53.616;10.032;2022-12-18T00:50:54;-3.50;1.00
10873;DHT22;34586;53.616;10.032;2022-12-18T00:53:20;-3.50;1.00
10873;DHT22;34586;53.616;10.032;2022-12-18T00:55:46;-3.50;1.00
10873;DHT22;34586;53.616;10.032;2022-12-18T00:58:14;-3.50;1.00
10873;DHT22;34586;53.616;10.032;2022-12-18T01:00:40;-3.50;1.00
10873;DHT22;34586;53.616;10.032;2022-12-18T01:03:06;-3.50;1.00
10873;DHT22;34586;53.616;10.032;2022-12-18T01:05:32;-3.60;1.00
10873;DHT22;34586;53.616;10.032;2022-12-18T01:07:58;-3.60;1.00
10873;DHT22;34586;53.616;10.032;2022-12-18T01:10:24;-3.60;1.00
10873;DHT22;34586;53.616;10.032;2022-12-18T01:12:50;-3.60;1.00
10873;DHT22;34586;53.616;10.032;2022-12-18T01:15:16;-3.60;1.00
10873;DHT22;34586;53.616;10.032;2022-12-18T01:17:42;-3.70;1.00
10873;DHT22;34586;53.616;10.032;2022-12-18T01:20:09;-3.70;1.00
10873;DHT22;34586;53.616;10.032;2022-12-18T01:22:35;-3.70;1.00
10873;DHT22;34586;53.616;10.032;2022-12-18T01:25:02;-3.70;1.00
10873;DHT22;34586;53.616;10.032;2022-12-18T01:27:27;-3.70;1.00
10873;DHT22;34586;53.616;10.032;2022-12-18T01:29:53;-3.70;1.00
10873;DHT22;34586;53.616;10.032;2022-12-18T01:32:19;-3.70;1.00
10873;DHT22;34586;53.616;10.032;2022-12-18T01:34:45;-3.80;1.00
10873;DHT22;34586;53.616;10.032;2022-12-18T01:37:10;-3.70;1.00
10873;DHT22;34586;53.616;10.032;2022-12-18T01:39:36;-3.80;1.00
10873;DHT22;34586;53.616;10.032;2022-12-18T01:42:11;-3.80;1.00
10873;DHT22;34586;53.616;10.032;2022-12-18T01:50:15;-3.90;1.00
10873;DHT22;34586;53.616;10.032;2022-12-18T01:52:46;-3.80;1.00
10873;DHT22;34586;53.616;10.032;2022-12-18T01:55:14;-3.90;1.00
10873;DHT22;34586;53.616;10.032;2022-12-18T01:57:42;-3.90;1.00
10873;DHT22;34586;53.616;10.032;2022-12-18T02:00:14;-3.90;1.00
10873;DHT22;34586;53.616;10.032;2022-12-18T02:02:41;-3.90;1.00
10873;DHT22;34586;53.616;10.032;2022-12-18T02:05:09;-3.90;1.00
10873;DHT22;34586;53.616;10.032;2022-12-18T02:07:54;-3.90;1.00
10873;DHT22;34586;53.616;10.032;2022-12-18T02:15:57;-3.90;1.00
10873;DHT22;34586;53.616;10.032;2022-12-18T02:18:29;-3.90;1.00
10873;DHT22;34586;53.616;10.032;2022-12-18T02:21:22;-3.90;1.00
10873;DHT22;34586;53.616;10.032;2022-12-18T02:24:00;-3.90;1.00
10873;DHT22;34586;53.616;10.032;2022-12-18T02:29:05;-3.90;1.00
10873;DHT22;34586;53.616;10.032;2022-12-18T02:31:40;-3.90;1.00
10873;DHT22;34586;53.616;10.032;2022-12-18T02:34:07;-3.90;1.00
10873;DHT22;34586;53.616;10.032;2022-12-18T02:36:36;-4.00;1.00
10873;DHT22;34586;53.616;10.032;2022-12-18T02:39:05;-3.90;1.00
10873;DHT22;34586;53.616;10.032;2022-12-18T02:41:32;-4.00;1.00
10873;DHT22;34586;53.616;10.032;2022-12-18T02:44:01;-4.00;1.00
10873;DHT22;34586;53.616;10.032;2022-12-18T02:48:56;-4.00;1.00
10873;DHT22;34586;53.616;10.032;2022-12-18T02:51:36;-4.10;1.00
10873;DHT22;34586;53.616;10.032;2022-12-18T02:54:23;-4.10;1.00
10873;DHT22;34586;53.616;10.032;2022-12-18T02:56:53;-4.10;1.00
10873;DHT22;34586;53.616;10.032;2022-12-18T02:59:24;-4.10;1.00
10873;DHT22;34586;53.616;10.032;2022-12-18T03:02:02;-4.10;1.00
10873;DHT22;34586;53.616;10.032;2022-12-18T03:07:14;-4.10;1.00
10873;DHT22;34586;53.616;10.032;2022-12-18T03:09:44;-4.10;1.00
10873;DHT22;34586;53.616;10.032;2022-12-18T03:12:18;-4.10;1.00
10873;DHT22;34586;53.616;10.032;2022-12-18T03:15:17;-4.20;1.00
10873;DHT22;34586;53.616;10.032;2022-12-18T03:17:48;-4.20;1.00
10873;DHT22;34586;53.616;10.032;2022-12-18T03:20:20;-4.30;1.00
10873;DHT22;34586;53.616;10.032;2022-12-18T03:22:50;-4.20;1.00
10873;DHT22;34586;53.616;10.032;2022-12-18T03:25:17;-4.20;1.00
10873;DHT22;34586;53.616;10.032;2022-12-18T03:27:48;-4.20;1.00
10873;DHT22;34586;53.616;10.032;2022-12-18T03:30:16;-4.30;1.00
10873;DHT22;34586;53.616;10.032;2022-12-18T03:32:51;-4.30;1.00
10873;DHT22;34586;53.616;10.032;2022-12-18T03:35:22;-4.20;1.00
10873;DHT22;34586;53.616;10.032;2022-12-18T03:37:49;-4.30;1.00
10873;DHT22;34586;53.616;10.032;2022-12-18T03:40:15;-4.30;1.00
10873;DHT22;34586;53.616;10.032;2022-12-18T03:45:23;-4.40;1.00
10873;DHT22;34586;53.616;10.032;2022-12-18T03:48:18;-4.30;1.00
10873;DHT22;34586;53.616;10.032;2022-12-18T03:50:56;-4.40;1.00
10873;DHT22;34586;53.616;10.032;2022-12-18T03:53:35;-4.40;1.00
10873;DHT22;34586;53.616;10.032;2022-12-18T03:56:04;-4.30;1.00
10873;DHT22;34586;53.616;10.032;2022-12-18T03:58:32;-4.30;1.00
10873;DHT22;34586;53.616;10.032;2022-12-18T04:01:02;-4.30;1.00
10873;DHT22;34586;53.616;10.032;2022-12-18T04:03:30;-4.30;1.00
10873;DHT22;34586;53.616;10.032;2022-12-18T04:05:59;-4.40;1.00
10873;DHT22;34586;53.616;10.032;2022-12-18T04:08:25;-4.40;1.00
10873;DHT22;34586;53.616;10.032;2022-12-18T04:10:51;-4.40;1.00
10873;DHT22;34586;53.616;10.032;2022-12-18T04:13:43;-4.40;1.00
10873;DHT22;34586;53.616;10.032;2022-12-18T04:16:08;-4.50;1.00
10873;DHT22;34586;53.616;10.032;2022-12-18T04:18:35;-4.40;1.00
10873;DHT22;34586;53.616;10.032;2022-12-18T04:21:01;-4.40;1.00
10873;DHT22;34586;53.616;10.032;2022-12-18T04:23:27;-4.50;1.00
10873;DHT22;34586;53.616;10.032;2022-12-18T04:25:53;-4.40;1.00
10873;DHT22;34586;53.616;10.032;2022-12-18T04:28:19;-4.50;1.00
10873;DHT22;34586;53.616;10.032;2022-12-18T04:30:45;-4.50;1.00
10873;DHT22;34586;53.616;10.032;2022-12-18T04:33:11;-4.50;1.00
10873;DHT22;34586;53.616;10.032;2022-12-18T04:35:38;-4.50;1.00
10873;DHT22;34586;53.616;10.032;2022-12-18T04:38:08;-4.50;1.00
10873;DHT22;34586;53.616;10.032;2022-12-18T04:40:35;-4.50;1.00
10873;DHT22;34586;53.616;10.032;2022-12-18T04:43:02;-4.50;1.00
10873;DHT22;34586;53.616;10.032;2022-12-18T04:45:30;-4.60;1.00
10873;DHT22;34586;53.616;10.032;2022-12-18T04:48:00;-4.60;1.00
10873;DHT22;34586;53.616;10.032;2022-12-18T04:50:26;-4.60;1.00
10873;DHT22;34586;53.616;10.032;2022-12-18T04:52:52;-4.60;1.00
10873;DHT22;34586;53.616;10.032;2022-12-18T04:55:18;-4.60;1.00
10873;DHT22;34586;53.616;10.032;2022-12-18T04:57:44;-4.60;1.00
10873;DHT22;34586;53.616;10.032;2022-12-18T05:00:10;-4.70;1.00
10873;DHT22;34586;53.616;10.032;2022-12-18T05:02:35;-4.70;1.00
10873;DHT22;34586;53.616;10.032;2022-12-18T05:05:01;-4.70;1.00
10873;DHT22;34586;53.616;10.032;2022-12-18T05:07:27;-4.70;1.00
10873;DHT22;34586;53.616;10.032;2022-12-18T05:09:52;-4.70;1.00
10873;DHT22;34586;53.616;10.032;2022-12-18T05:12:18;-4.70;1.00
10873;DHT22;34586;53.616;10.032;2022-12-18T05:14:43;-4.70;1.00
10873;DHT22;34586;53.616;10.032;2022-12-18T05:17:09;-4.80;1.00
10873;DHT22;34586;53.616;10.032;2022-12-18T05:19:34;-4.80;1.00
10873;DHT22;34586;53.616;10.032;2022-12-18T05:22:00;-4.90;1.00
10873;DHT22;34586;53.616;10.032;2022-12-18T05:24:27;-4.90;1.00
10873;DHT22;34586;53.616;10.032;2022-12-18T05:26:52;-4.90;1.00
10873;DHT22;34586;53.616;10.032;2022-12-18T05:29:18;-4.90;1.00
10873;DHT22;34586;53.616;10.032;2022-12-18T05:31:43;-4.90;1.00
10873;DHT22;34586;53.616;10.032;2022-12-18T05:34:09;-4.90;1.00
10873;DHT22;34586;53.616;10.032;2022-12-18T05:36:34;-4.90;1.00
10873;DHT22;34586;53.616;10.032;2022-12-18T05:39:00;-5.00;1.00
10873;DHT22;34586;53.616;10.032;2022-12-18T05:41:26;-4.90;1.00
10873;DHT22;34586;53.616;10.032;2022-12-18T05:43:52;-4.90;1.00
10873;DHT22;34586;53.616;10.032;2022-12-18T05:46:17;-4.90;1.00
10873;DHT22;34586;53.616;10.032;2022-12-18T05:48:44;-4.90;1.00
10873;DHT22;34586;53.616;10.032;2022-12-18T05:51:15;-4.90;1.00
10873;DHT22;34586;53.616;10.032;2022-12-18T05:53:41;-4.90;1.00
10873;DHT22;34586;53.616;10.032;2022-12-18T05:56:13;-4.90;1.00
10873;DHT22;34586;53.616;10.032;2022-12-18T05:58:40;-4.90;1.00
10873;DHT22;34586;53.616;10.032;2022-12-18T06:03:35;-4.90;1.00
10873;DHT22;34586;53.616;10.032;2022-12-18T06:06:01;-4.90;1.00
10873;DHT22;34586;53.616;10.032;2022-12-18T06:08:27;-4.90;1.00
10873;DHT22;34586;53.616;10.032;2022-12-18T06:10:52;-4.90;1.00
10873;DHT22;34586;53.616;10.032;2022-12-18T06:13:19;-4.90;1.00
10873;DHT22;34586;53.616;10.032;2022-12-18T06:15:44;-4.90;1.00
10873;DHT22;34586;53.616;10.032;2022-12-18T06:18:10;-4.90;1.00
10873;DHT22;34586;53.616;10.032;2022-12-18T06:20:35;-4.90;1.00
10873;DHT22;34586;53.616;10.032;2022-12-18T06:23:02;-4.90;1.00
10873;DHT22;34586;53.616;10.032;2022-12-18T06:25:28;-5.00;1.00
10873;DHT22;34586;53.616;10.032;2022-12-18T06:27:53;-4.90;1.00
10873;DHT22;34586;53.616;10.032;2022-12-18T06:30:19;-4.90;1.00
10873;DHT22;34586;53.616;10.032;2022-12-18T06:32:45;-5.00;1.00
10873;DHT22;34586;53.616;10.032;2022-12-18T06:35:10;-5.00;1.00
10873;DHT22;34586;53.616;10.032;2022-12-18T06:37:36;-5.00;1.00
10873;DHT22;34586;53.616;10.032;2022-12-18T06:40:02;-5.00;1.00
10873;DHT22;34586;53.616;10.032;2022-12-18T06:42:28;-5.00;1.00
10873;DHT22;34586;53.616;10.032;2022-12-18T06:44:54;-5.00;1.00
10873;DHT22;34586;53.616;10.032;2022-12-18T06:47:20;-5.00;1.00
10873;DHT22;34586;53.616;10.032;2022-12-18T06:49:45;-5.00;1.00
10873;DHT22;34586;53.616;10.032;2022-12-18T06:52:11;-5.00;1.00
10873;DHT22;34586;53.616;10.032;2022-12-18T06:54:36;-5.00;1.00
10873;DHT22;34586;53.616;10.032;2022-12-18T06:57:02;-5.00;1.00
10873;DHT22;34586;53.616;10.032;2022-12-18T06:59:28;-5.10;1.00
10873;DHT22;34586;53.616;10.032;2022-12-18T07:01:53;-5.10;1.00
10873;DHT22;34586;53.616;10.032;2022-12-18T07:04:19;-5.00;1.00
10873;DHT22;34586;53.616;10.032;2022-12-18T07:06:44;-5.00;1.00
10873;DHT22;34586;53.616;10.032;2022-12-18T07:09:10;-5.00;1.00
10873;DHT22;34586;53.616;10.032;2022-12-18T07:11:36;-5.00;1.00
10873;DHT22;34586;53.616;10.032;2022-12-18T07:14:01;-5.00;1.00
10873;DHT22;34586;53.616;10.032;2022-12-18T07:16:27;-5.10;1.00
10873;DHT22;34586;53.616;10.032;2022-12-18T07:18:55;-5.00;1.00
10873;DHT22;34586;53.616;10.032;2022-12-18T07:21:22;-5.00;1.00
10873;DHT22;34586;53.616;10.032;2022-12-18T07:23:48;-5.10;1.00
10873;DHT22;34586;53.616;10.032;2022-12-18T07:26:15;-5.00;1.00
10873;DHT22;34586;53.616;10.032;2022-12-18T07:28:42;-5.00;1.00
10873;DHT22;34586;53.616;10.032;2022-12-18T07:31:16;-5.00;1.00
10873;DHT22;34586;53.616;10.032;2022-12-18T07:33:42;-5.00;1.00
10873;DHT22;34586;53.616;10.032;2022-12-18T07:36:09;-5.00;1.00
10873;DHT22;34586;53.616;10.032;2022-12-18T07:38:35;-5.00;1.00
10873;DHT22;34586;53.616;10.032;2022-12-18T07:41:06;-5.00;1.00
10873;DHT22;34586;53.616;10.032;2022-12-18T07:43:32;-4.90;1.00
10873;DHT22;34586;53.616;10.032;2022-12-18T07:45:57;-4.90;1.00
10873;DHT22;34586;53.616;10.032;2022-12-18T07:48:23;-4.90;1.00
10873;DHT22;34586;53.616;10.032;2022-12-18T07:50:49;-4.90;1.00
10873;DHT22;34586;53.616;10.032;2022-12-18T07:53:14;-4.90;1.00
10873;DHT22;34586;53.616;10.032;2022-12-18T07:55:41;-4.80;1.00
10873;DHT22;34586;53.616;10.032;2022-12-18T07:58:07;-4.80;1.00
10873;DHT22;34586;53.616;10.032;2022-12-18T08:00:34;-4.80;1.00
10873;DHT22;34586;53.616;10.032;2022-12-18T08:03:00;-4.80;1.00
10873;DHT22;34586;53.616;10.032;2022-12-18T08:05:25;-4.80;1.00
10873;DHT22;34586;53.616;10.032;2022-12-18T08:07:51;-4.80;99.90
10873;DHT22;34586;53.616;10.032;2022-12-18T08:10:17;-4.70;1.00
10873;DHT22;34586;53.616;10.032;2022-12-18T08:12:43;-4.70;99.90
10873;DHT22;34586;53.616;10.032;2022-12-18T08:15:09;-4.70;99.90
10873;DHT22;34586;53.616;10.032;2022-12-18T08:17:34;-4.80;99.90
10873;DHT22;34586;53.616;10.032;2022-12-18T08:20:00;-4.70;1.00
10873;DHT22;34586;53.616;10.032;2022-12-18T08:22:26;-4.70;99.90
10873;DHT22;34586;53.616;10.032;2022-12-18T08:24:51;-4.70;99.90
10873;DHT22;34586;53.616;10.032;2022-12-18T08:27:17;-4.60;99.90
10873;DHT22;34586;53.616;10.032;2022-12-18T08:29:42;-4.70;99.90
10873;DHT22;34586;53.616;10.032;2022-12-18T08:32:08;-4.60;99.90
10873;DHT22;34586;53.616;10.032;2022-12-18T08:34:34;-4.60;99.90
10873;DHT22;34586;53.616;10.032;2022-12-18T08:36:59;-4.60;99.90
10873;DHT22;34586;53.616;10.032;2022-12-18T08:39:25;-4.60;99.90
10873;DHT22;34586;53.616;10.032;2022-12-18T08:41:50;-4.50;99.90
10873;DHT22;34586;53.616;10.032;2022-12-18T08:44:34;-4.50;99.90
10873;DHT22;34586;53.616;10.032;2022-12-18T08:47:04;-4.50;99.90
10873;DHT22;34586;53.616;10.032;2022-12-18T08:49:29;-4.50;99.90
10873;DHT22;34586;53.616;10.032;2022-12-18T08:51:56;-4.40;99.90
10873;DHT22;34586;53.616;10.032;2022-12-18T08:54:23;-4.40;99.90
10873;DHT22;34586;53.616;10.032;2022-12-18T08:56:49;-4.40;99.90
10873;DHT22;34586;53.616;10.032;2022-12-18T08:59:18;-4.40;96.00
10873;DHT22;34586;53.616;10.032;2022-12-18T09:01:45;-4.30;99.90
10873;DHT22;34586;53.616;10.032;2022-12-18T09:04:11;-4.30;1.00
10873;DHT22;34586;53.616;10.032;2022-12-18T09:06:37;-4.30;99.90
10873;DHT22;34586;53.616;10.032;2022-12-18T09:09:04;-4.30;99.90
10873;DHT22;34586;53.616;10.032;2022-12-18T09:11:31;-4.30;1.00
10873;DHT22;34586;53.616;10.032;2022-12-18T09:13:57;-4.20;1.00
10873;DHT22;34586;53.616;10.032;2022-12-18T09:16:25;-4.20;99.90
10873;DHT22;34586;53.616;10.032;2022-12-18T09:18:51;-4.10;1.00
10873;DHT22;34586;53.616;10.032;2022-12-18T09:21:20;-4.10;1.00
10873;DHT22;34586;53.616;10.032;2022-12-18T09:23:52;-4.10;1.00
10873;DHT22;34586;53.616;10.032;2022-12-18T09:26:18;-4.00;1.00
10873;DHT22;34586;53.616;10.032;2022-12-18T09:28:44;-4.00;1.00
10873;DHT22;34586;53.616;10.032;2022-12-18T09:31:12;-3.90;1.00
10873;DHT22;34586;53.616;10.032;2022-12-18T09:33:38;-3.90;1.00
10873;DHT22;34586;53.616;10.032;2022-12-18T09:36:06;-3.80;1.00
10873;DHT22;34586;53.616;10.032;2022-12-18T09:38:32;-3.80;1.00
10873;DHT22;34586;53.616;10.032;2022-12-18T09:41:20;-3.70;1.00
10873;DHT22;34586;53.616;10.032;2022-12-18T09:43:52;-3.60;1.00
10873;DHT22;34586;53.616;10.032;2022-12-18T09:46:25;-3.50;1.00
10873;DHT22;34586;53.616;10.032;2022-12-18T09:48:53;-3.40;1.00
10873;DHT22;34586;53.616;10.032;2022-12-18T09:51:24;-3.40;10.90
10873;DHT22;34586;53.616;10.032;2022-12-18T09:53:57;-3.30;1.00
10873;DHT22;34586;53.616;10.032;2022-12-18T09:56:25;-3.30;99.90
10873;DHT22;34586;53.616;10.032;2022-12-18T09:58:58;-3.30;1.00
10873;DHT22;34586;53.616;10.032;2022-12-18T10:01:25;-3.20;1.00
10873;DHT22;34586;53.616;10.032;2022-12-18T10:03:52;-3.10;99.90
10873;DHT22;34586;53.616;10.032;2022-12-18T10:20:02;-2.70;99.90
10873;DHT22;34586;53.616;10.032;2022-12-18T10:25:21;-2.50;1.00
10873;DHT22;34586;53.616;10.032;2022-12-18T10:27:48;-2.50;99.90
10873;DHT22;34586;53.616;10.032;2022-12-18T10:30:19;-2.50;1.00
10873;DHT22;34586;53.616;10.032;2022-12-18T10:32:44;-2.40;6.10
10873;DHT22;34586;53.616;10.032;2022-12-18T10:35:28;-2.40;1.00
10873;DHT22;34586;53.616;10.032;2022-12-18T10:40:51;-2.40;39.70
10873;DHT22;34586;53.616;10.032;2022-12-18T10:46:01;-2.30;18.30
10873;DHT22;34586;53.616;10.032;2022-12-18T10:48:27;-2.30;65.40
10873;DHT22;34586;53.616;10.032;2022-12-18T10:50:53;-2.20;1.00
10873;DHT22;34586;53.616;10.032;2022-12-18T10:53:24;-2.20;1.00
10873;DHT22;34586;53.616;10.032;2022-12-18T10:55:52;-2.00;1.00
10873;DHT22;34586;53.616;10.032;2022-12-18T10:58:34;-1.90;95.50
10873;DHT22;34586;53.616;10.032;2022-12-18T11:01:15;-1.80;27.90
10873;DHT22;34586;53.616;10.032;2022-12-18T11:03:45;-1.70;1.00
10873;DHT22;34586;53.616;10.032;2022-12-18T11:06:16;-1.70;99.90
10873;DHT22;34586;53.616;10.032;2022-12-18T11:08:44;-1.70;1.00
10873;DHT22;34586;53.616;10.032;2022-12-18T11:11:21;-1.60;1.00
10873;DHT22;34586;53.616;10.032;2022-12-18T11:13:58;-1.80;1.00
10873;DHT22;34586;53.616;10.032;2022-12-18T11:16:25;-1.60;1.00
10873;DHT22;34586;53.616;10.032;2022-12-18T11:18:51;-1.50;1.00
10873;DHT22;34586;53.616;10.032;2022-12-18T11:21:17;-1.50;1.00
10873;DHT22;34586;53.616;10.032;2022-12-18T11:23:53;-1.40;1.00
10873;DHT22;34586;53.616;10.032;2022-12-18T11:26:19;-1.40;96.00
10873;DHT22;34586;53.616;10.032;2022-12-18T11:28:51;-1.30;99.90
10873;DHT22;34586;53.616;10.032;2022-12-18T11:31:22;-1.30;99.10
10873;DHT22;34586;53.616;10.032;2022-12-18T11:36:42;-1.20;99.90
10873;DHT22;34586;53.616;10.032;2022-12-18T11:39:18;-1.20;99.90
10873;DHT22;34586;53.616;10.032;2022-12-18T11:41:50;-1.20;1.00
10873;DHT22;34586;53.616;10.032;2022-12-18T11:45:03;-1.10;1.00
10873;DHT22;34586;53.616;10.032;2022-12-18T11:48:03;-1.20;99.90
10873;DHT22;34586;53.616;10.032;2022-12-18T11:53:13;-1.10;1.00
10873;DHT22;34586;53.616;10.032;2022-12-18T12:00:52;-0.90;1.00
10873;DHT22;34586;53.616;10.032;2022-12-18T12:06:20;-1.00;99.90
10873;DHT22;34586;53.616;10.032;2022-12-18T12:09:21;-0.90;1.00
10873;DHT22;34586;53.616;10.032;2022-12-18T12:14:49;-0.90;99.90
10873;DHT22;34586;53.616;10.032;2022-12-18T12:17:24;-0.80;1.00
10873;DHT22;34586;53.616;10.032;2022-12-18T12:20:06;-0.80;1.00
10873;DHT22;34586;53.616;10.032;2022-12-18T12:23:20;-0.80;26.10
10873;DHT22;34586;53.616;10.032;2022-12-18T12:25:52;-0.80;1.00
10873;DHT22;34586;53.616;10.032;2022-12-18T12:34:09;-0.60;1.00
10873;DHT22;34586;53.616;10.032;2022-12-18T12:37:04;-0.50;1.00
10873;DHT22;34586;53.616;10.032;2022-12-18T12:39:37;-0.50;99.90
10873;DHT22;34586;53.616;10.032;2022-12-18T12:42:13;-0.50;1.00
10873;DHT22;34586;53.616;10.032;2022-12-18T12:45:02;-0.50;1.00
10873;DHT22;34586;53.616;10.032;2022-12-18T12:47:33;-0.50;1.00
10873;DHT22;34586;53.616;10.032;2022-12-18T12:50:05;-0.30;35.70
10873;DHT22;34586;53.616;10.032;2022-12-18T12:52:33;0.00;1.00
10873;DHT22;34586;53.616;10.032;2022-12-18T12:55:02;0.30;99.90
10873;DHT22;34586;53.616;10.032;2022-12-18T12:57:40;0.60;1.00
10873;DHT22;34586;53.616;10.032;2022-12-18T13:00:11;0.60;1.00
10873;DHT22;34586;53.616;10.032;2022-12-18T13:02:52;0.50;1.00
10873;DHT22;34586;53.616;10.032;2022-12-18T13:08:21;0.30;1.00
10873;DHT22;34586;53.616;10.032;2022-12-18T13:10:47;0.20;99.90
10873;DHT22;34586;53.616;10.032;2022-12-18T13:13:14;0.20;99.90
10873;DHT22;34586;53.616;10.032;2022-12-18T13:18:25;0.20;1.00
10873;DHT22;34586;53.616;10.032;2022-12-18T13:25:56;0.30;99.90
10873;DHT22;34586;53.616;10.032;2022-12-18T13:31:02;0.20;1.00
10873;DHT22;34586;53.616;10.032;2022-12-18T13:36:26;0.00;99.90
10873;DHT22;34586;53.616;10.032;2022-12-18T13:41:42;-0.30;99.90
10873;DHT22;34586;53.616;10.032;2022-12-18T13:46:57;-0.50;99.90
10873;DHT22;34586;53.616;10.032;2022-12-18T13:51:53;-0.70;1.00
10873;DHT22;34586;53.616;10.032;2022-12-18T13:56:53;-0.80;96.10
10873;DHT22;34586;53.616;10.032;2022-12-18T13:59:22;-0.80;1.00
10873;DHT22;34586;53.616;10.032;2022-12-18T14:01:52;-0.90;99.90
10873;DHT22;34586;53.616;10.032;2022-12-18T14:06:55;-0.90;1.00
10873;DHT22;34586;53.616;10.032;2022-12-18T14:09:25;-1.10;1.00
10873;DHT22;34586;53.616;10.032;2022-12-18T14:11:51;-1.00;99.90
10873;DHT22;34586;53.616;10.032;2022-12-18T14:14:18;-1.00;1.00
10873;DHT22;34586;53.616;10.032;2022-12-18T14:16:46;-1.10;99.90
10873;DHT22;34586;53.616;10.032;2022-12-18T14:19:15;-1.00;1.00
10873;DHT22;34586;53.616;10.032;2022-12-18T14:21:46;-1.00;99.90
10873;DHT22;34586;53.616;10.032;2022-12-18T14:24:18;-1.10;99.90
10873;DHT22;34586;53.616;10.032;2022-12-18T14:26:44;-1.10;99.90
10873;DHT22;34586;53.616;10.032;2022-12-18T14:29:26;-1.20;99.90
10873;DHT22;34586;53.616;10.032;2022-12-18T14:32:12;-1.10;1.00
10873;DHT22;34586;53.616;10.032;2022-12-18T14:34:39;-1.20;1.00
10873;DHT22;34586;53.616;10.032;2022-12-18T14:37:05;-1.30;99.90
10873;DHT22;34586;53.616;10.032;2022-12-18T14:39:32;-1.40;99.90
10873;DHT22;34586;53.616;10.032;2022-12-18T14:41:57;-1.50;99.90
10873;DHT22;34586;53.616;10.032;2022-12-18T14:44:23;-1.50;1.00
10873;DHT22;34586;53.616;10.032;2022-12-18T14:46:50;-1.60;1.00
10873;DHT22;34586;53.616;10.032;2022-12-18T14:52:23;-1.50;99.90
10873;DHT22;34586;53.616;10.032;2022-12-18T14:54:52;-1.60;99.90
10873;DHT22;34586;53.616;10.032;2022-12-18T14:57:23;-1.60;99.90
10873;DHT22;34586;53.616;10.032;2022-12-18T14:59:49;-1.70;1.00
10873;DHT22;34586;53.616;10.032;2022-12-18T15:02:24;-1.60;1.00
10873;DHT22;34586;53.616;10.032;2022-12-18T15:05:05;-1.70;99.90
10873;DHT22;34586;53.616;10.032;2022-12-18T15:07:48;-1.80;1.00
10873;DHT22;34586;53.616;10.032;2022-12-18T15:10:21;-1.80;1.00
10873;DHT22;34586;53.616;10.032;2022-12-18T15:23:26;-2.00;1.00
10873;DHT22;34586;53.616;10.032;2022-12-18T15:28:45;-2.00;99.90
10873;DHT22;34586;53.616;10.032;2022-12-18T15:36:13;-2.10;99.90
10873;DHT22;34586;53.616;10.032;2022-12-18T15:38:39;-2.10;1.00
10873;DHT22;34586;53.616;10.032;2022-12-18T15:41:16;-2.10;99.90
10873;DHT22;34586;53.616;10.032;2022-12-18T15:43:42;-2.10;18.50
10873;DHT22;34586;53.616;10.032;2022-12-18T15:46:23;-2.00;1.00
10873;DHT22;34586;53.616;10.032;2022-12-18T15:48:53;-2.10;1.00
10873;DHT22;34586;53.616;10.032;2022-12-18T15:51:34;-2.00;1.00
10873;DHT22;34586;53.616;10.032;2022-12-18T15:54:08;-2.00;1.00
10873;DHT22;34586;53.616;10.032;2022-12-18T15:56:35;-1.90;99.90
10873;DHT22;34586;53.616;10.032;2022-12-18T15:59:20;-1.90;99.90
10873;DHT22;34586;53.616;10.032;2022-12-18T16:01:50;-1.90;1.00
10873;DHT22;34586;53.616;10.032;2022-12-18T16:04:19;-1.90;1.00
10873;DHT22;34586;53.616;10.032;2022-12-18T16:06:48;-1.90;99.90
10873;DHT22;34586;53.616;10.032;2022-12-18T16:09:14;-1.80;1.00
10873;DHT22;34586;53.616;10.032;2022-12-18T16:11:42;-1.80;1.00
10873;DHT22;34586;53.616;10.032;2022-12-18T16:14:18;-1.80;71.80
10873;DHT22;34586;53.616;10.032;2022-12-18T16:16:46;-1.80;99.90
10873;DHT22;34586;53.616;10.032;2022-12-18T16:19:12;-1.80;99.90
10873;DHT22;34586;53.616;10.032;2022-12-18T16:21:38;-1.80;1.00
10873;DHT22;34586;53.616;10.032;2022-12-18T16:24:03;-1.80;99.90
10873;DHT22;34586;53.616;10.032;2022-12-18T16:26:30;-1.80;1.00
10873;DHT22;34586;53.616;10.032;2022-12-18T16:28:56;-1.80;1.00
10873;DHT22;34586;53.616;10.032;2022-12-18T16:31:22;-1.80;1.00
10873;DHT22;34586;53.616;10.032;2022-12-18T16:33:48;-1.80;31.30
10873;DHT22;34586;53.616;10.032;2022-12-18T16:36:13;-1.70;99.90
10873;DHT22;34586;53.616;10.032;2022-12-18T16:38:39;-1.70;99.90
10873;DHT22;34586;53.616;10.032;2022-12-18T16:41:17;-1.70;1.00
10873;DHT22;34586;53.616;10.032;2022-12-18T16:43:59;-1.70;99.90
10873;DHT22;34586;53.616;10.032;2022-12-18T16:46:24;-1.90;1.00
10873;DHT22;34586;53.616;10.032;2022-12-18T16:48:50;-1.90;1.00
10873;DHT22;34586;53.616;10.032;2022-12-18T16:51:15;-2.00;99.90
10873;DHT22;34586;53.616;10.032;2022-12-18T16:53:41;-1.90;1.00
10873;DHT22;34586;53.616;10.032;2022-12-18T16:56:07;-1.90;1.00
10873;DHT22;34586;53.616;10.032;2022-12-18T16:58:32;-2.00;99.90
10873;DHT22;34586;53.616;10.032;2022-12-18T17:00:58;-2.00;1.00
10873;DHT22;34586;53.616;10.032;2022-12-18T17:03:24;-2.00;1.00
10873;DHT22;34586;53.616;10.032;2022-12-18T17:05:49;-1.90;99.90
10873;DHT22;34586;53.616;10.032;2022-12-18T17:08:15;-1.90;1.00
10873;DHT22;34586;53.616;10.032;2022-12-18T17:10:41;-2.00;1.00
10873;DHT22;34586;53.616;10.032;2022-12-18T17:13:06;-2.10;1.00
10873;DHT22;34586;53.616;10.032;2022-12-18T17:15:35;-2.00;99.90
10873;DHT22;34586;53.616;10.032;2022-12-18T17:18:01;-2.10;1.00
10873;DHT22;34586;53.616;10.032;2022-12-18T17:20:26;-2.00;1.00
10873;DHT22;34586;53.616;10.032;2022-12-18T17:22:52;-1.90;1.00
10873;DHT22;34586;53.616;10.032;2022-12-18T17:25:17;-1.90;99.90
10873;DHT22;34586;53.616;10.032;2022-12-18T17:27:43;-2.00;32.70
10873;DHT22;34586;53.616;10.032;2022-12-18T17:30:09;-2.00;1.00
10873;DHT22;34586;53.616;10.032;2022-12-18T17:32:35;-2.00;99.90
10873;DHT22;34586;53.616;10.032;2022-12-18T17:35:00;-2.00;1.00
10873;DHT22;34586;53.616;10.032;2022-12-18T17:37:26;-1.90;1.00
10873;DHT22;34586;53.616;10.032;2022-12-18T17:39:52;-1.90;99.90